메인 페이지
METAR-TAF:

METAR-TAF

공항 :

타우바테, 상파울루, 브라질

위도: 23-02-26S, 경도: 45-31-00W, 고도: 577m

현재 날씨관측

예보는 3 시간 50분 전, 03:00시(UTC)에 발표되었습니다.
동남동3kt
온도 17°C
습도 94%
기압 1025 hPa
시정: 8000m
고도 2800ft 상공 구름 보통
고도 3300ft 상공 흐림

METAR: SBTA 230300Z 11003KT 8000 SCT028 OVC033 17/16 Q1025

시각: 03:50 (06:50 UTC)


TAF: 누락

4,000개 이상의 공항 관측 자료 및 예보 (METAR 및 TAF 보고).

지도상에서 검색 가능한 기상관측소가 노란 점과 빨간 점으로 표시되어 있습니다.

기상관측소 명을 보려면 표시 위로 마우스를 이동하세요.

날씨 관측과 예보를 보려면 클릭하세요.

지도 변경 : 확대하려면 엑스 표시가 있는 녹색 버튼, 축소하려면 빼기 표시가 있는 녹색 버튼, 다음 페이지의 지도를 보려면 녹색 화살표를 클릭하세요.


METAR-TAF: